Gloucestershire Airport

Airport
ICAO code: 
EGBJ
IATA Code: 
GLO
Summary
ICAO Region: 
EUR
Territory: 
Location: 
Staverton, Gloucestershire, England
Serving: 
Gloucester
Elevation: 
101 ft
Coordinates: 
Aerial View: 
51° 53' 37.454" N, 2° 9' 52.208" W
Metar
Observation
EGBJ 081420Z 25012KT 210V280 9999 SCT028 08/02 Q0991
Station
Staverton Private
Date/Time
2021-12-08 14:20:00
Wind direction
250°
Wind speed
12 kts
Lowest cloud amount
scattered clouds
Temperature
8°C
Dew point
2°C
Humidity
65%
QNH
991 hPa
Weather condition
n/a

Description

Gloucestershire Airport, formerly Staverton Airport, is located at Staverton, in the Borough of Tewkesbury within Gloucestershire, England. It lies 3.5 nm west of Cheltenham, near the city of Gloucester and close to the M5 motorway.

Runways

Designator Length Width Surface Rops
18/36 800 18 ASP No/No
4/22 981 34 ASP No/No
9/27 1419 34 ASP No/No
Airport map: 
Aerial View: 

SKYbrary Partners:

Safety knowledge contributed by: